Información del aeropuerto VRMG

Información de pista
Pista 10 Longitud 8694 ft Anchura 148 ft
Elevación 6 ft Umbral 298 ft Rumbo 99
Pista 28 Longitud 8694 ft Anchura 148 ft
Elevación 6 ft Umbral 298 ft Rumbo 279
Frecuencias del aeropuerto
Tipo TWR Nombre GAN TWR Frecuencia 119.1 MHZ
Radioayudas del aeropuerto
Tipo VOR-DME Nombre Gan Island Frecuencia 113400 KHZ
Tipo NDB Nombre Gan Island Frecuencia 317 KHZ
Información meteorológica del aeropuerto y NOTAM
ADDS - METARS form results

(0110 UTC 06 May 2021)
Data provider http://aviationweather.gov/metar/data/
 
Forecast for: VRMG (GAN INTL AIRPORT, MV)
Text: TAF VRMG 052300Z 0600/0706 23004KT 9999 FEW018
Forecast period: 0000 UTC 06 May 2021 to 0600 UTC 07 May 2021
Forecast type: FROM: standard forecast or significant change
Winds: from the SW (230 degrees) at 5 MPH (4 knots; 2.1 m/s)
Visibility: 6 or more miles (10+ km)
Ceiling: at least 12,000 feet AGL
Clouds: few clouds at 1800 feet AGL
Weather: no significant weather forecast for this period
Text: TEMPO 0600/0606 FEW018CB
Forecast period: 0000 to 0600 UTC 06 May 2021
Forecast type: TEMPORARY: The following changes expected for less than half the time period
Visibility: missing
Ceiling: at least 12,000 feet AGL
Clouds: few clouds at 1800 feet AGL
Weather: no significant weather forecast for this period